Latest Coastal Weather Observations for Strahan

IDT60701

Issued at 12:41 am EDT Wednesday 10 February 2016 (issued every 10 minutes, with the page automatically refreshed every 10 minutes)

About coastal observations | Map of coastal stations | Coastal observations for TAS | Marine services | Other Formats
Station Details ID: 097072 Name: STRAHAN AERODROME Lat: -42.16 Lon: 145.29 Height: 21.0 m
Data from the previous 72 hours. | See also: Recent months at Strahan
Date/Time
EDT
Temp

°C
Wind Pressure Rain
since 9am
mm
Weather Cloud Vis
km
Sea
Height
m
Swell
Dir
 
Speed
knots
Gust
knots
hPa Trend Height
m
Period
s
Dir
10/12:30am 13.1 NE 3 4 1016.4 - 0.0 - Partly cloudy 10 - - - -
10/12:00am 12.5 NE 2 4 1016.7 - 0.0 - - 10 - - - -
 
Date/Time
EDT
Temp

°C
Wind Pressure Rain
since 9am
mm
Weather Cloud Vis
km
Sea
Height
m
Swell
Dir
 
Speed
knots
Gust
knots
hPa Trend Height
m
Period
s
Dir
09/11:30pm 12.9 CALM 0 0 1016.9 - 0.0 - Partly cloudy 10 - - - -
09/11:00pm 12.3 NE 2 3 1017.3 - 0.0 - Partly cloudy 10 - - - -
09/10:30pm 13.7 NNE 3 4 1017.4 - 0.0 - - 10 - - - -
09/10:00pm 14.8 WNW 4 5 1017.6 - 0.0 - - 10 - - - -
09/09:30pm 14.6 CALM 0 2 1017.7 - 0.0 - - 10 - - - -
09/09:00pm 15.9 SW 3 4 1017.9 - 0.0 - Mostly cloudy 10 - - - -
09/08:30pm 16.3 SW 6 9 1018.2 - 0.0 - Partly cloudy 10 - - - -
09/08:00pm 16.8 SW 7 9 1018.1 - 0.0 - Partly cloudy 10 - - - -
09/07:30pm 17.2 WSW 8 11 1018.3 - 0.0 - Partly cloudy 10 - - - -
09/07:00pm 17.6 WSW 8 11 1018.2 - 0.0 - Partly cloudy 10 - - - -
09/06:30pm 17.7 W 7 10 1018.2 - 0.0 - Cloudy 10 - - - -
09/06:00pm 18.8 WSW 8 11 1018.2 - 0.0 - Mostly cloudy 10 - - - -
09/05:30pm 19.1 WSW 7 11 1018.1 - 0.0 - Partly cloudy 10 - - - -
09/05:00pm 19.5 WSW 9 14 1018.3 - 0.0 - Partly cloudy 10 - - - -
09/04:30pm 20.2 W 9 12 1018.5 - 0.0 - - 10 - - - -
09/04:00pm 20.5 W 10 14 1018.6 - 0.0 - - 10 - - - -
09/03:30pm 20.9 WSW 11 15 1018.8 - 0.0 - - 10 - - - -
09/03:00pm 21.1 WSW 10 14 1019.1 - 0.0 - - 10 - - - -
09/02:30pm 20.9 W 9 13 1019.2 - 0.0 - - 10 - - - -
09/02:00pm 21.3 WSW 11 16 1019.6 - 0.0 - - 10 - - - -
09/01:30pm 21.6 WSW 10 13 1019.8 - 0.0 - - 10 - - - -
09/01:00pm 21.6 WSW 11 14 1020.2 - 0.0 - - 10 - - - -
09/12:30pm 20.5 W 10 13 1020.5 - 0.0 - - 10 - - - -
09/12:00pm 20.9 W 9 12 1020.7 - 0.0 - - 10 - - - -
09/11:30am 20.7 WSW 8 11 1020.8 - 0.0 - - 10 - - - -
09/11:00am 20.4 WSW 8 11 1021.1 - 0.0 - - 10 - - - -
09/10:30am 20.0 W 6 8 1021.3 - 0.0 - - 10 - - - -
09/10:00am 19.0 NW 3 5 1021.5 - 0.0 - - 10 - - - -
09/09:30am 18.6 SW 2 4 1021.7 - 0.0 - - 10 - - - -
09/09:00am 17.5 NE 5 6 1021.9 - 0.0 - - 10 - - - -
09/08:30am 15.7 NE 5 7 1022.0 - 0.0 - - 10 - - - -
09/08:00am 14.0 NNE 4 6 1022.1 - 0.0 - - 10 - - - -
09/07:30am 12.4 NNE 4 5 1022.0 - 0.0 - - 10 - - - -
09/07:00am 11.4 NNE 5 6 1021.8 - 0.0 - - 10 - - - -
09/06:30am 11.2 NNE 5 7 1021.6 - 0.0 - - 10 - - - -
09/06:00am 11.0 N 5 8 1021.5 - 0.0 - - 10 - - - -
09/05:30am 10.7 N 5 6 1021.3 - 0.0 - - 10 - - - -
09/05:00am 11.3 NNE 4 6 1021.3 - 0.0 - - 10 - - - -
09/04:30am 11.3 CALM 0 0 1021.5 - 0.0 - - 10 - - - -
09/04:00am 12.0 NNE 4 5 1021.8 - 0.0 - - 10 - - - -
09/03:30am 12.0 N 4 5 1022.0 - 0.0 - Partly cloudy 10 - - - -
09/03:00am 12.8 NNE 5 6 1022.1 - 0.0 - - 10 - - - -
09/02:30am 12.8 NNE 6 7 1022.1 - 0.0 - - 10 - - - -
09/02:00am 12.7 N 4 5 1022.2 - 0.0 - - 10 - - - -
09/01:30am 12.7 NNE 4 5 1022.4 - 0.0 - - 10 - - - -
09/01:00am 13.1 CALM 0 0 1022.6 - 0.0 - - 10 - - - -
09/12:30am 14.0 NNE 3 5 1022.8 - 0.0 - Partly cloudy 10 - - - -
09/12:00am 13.4 N 3 5 1022.9 - 0.0 - Cloudy 10 - - - -
 
Date/Time
EDT
Temp

°C
Wind Pressure Rain
since 9am
mm
Weather Cloud Vis
km
Sea
Height
m
Swell
Dir
 
Speed
knots
Gust
knots
hPa Trend Height
m
Period
s
Dir
08/11:30pm 14.2 CALM 0 3 1023.0 - 0.0 - Cloudy 10 - - - -
08/11:00pm 13.8 WSW 3 4 1023.2 - 0.0 - Partly cloudy 10 - - - -
08/10:30pm 13.7 SSW 4 5 1023.2 - 0.0 - - 10 - - - -
08/10:00pm 14.0 SSW 5 5 1023.3 - 0.0 - - 10 - - - -
08/09:30pm 14.1 SSW 5 6 1023.0 - 0.0 - - 10 - - - -
08/09:00pm 14.6 SW 5 6 1022.7 - 0.0 - - 10 - - - -
08/08:30pm 15.5 SW 5 7 1022.5 - 0.0 - - 10 - - - -
08/08:00pm 16.7 SW 8 11 1022.5 - 0.0 - Partly cloudy 10 - - - -
08/07:30pm 17.8 SW 8 11 1022.3 - 0.0 - - 10 - - - -
08/07:00pm 18.7 WSW 10 16 1022.1 - 0.0 - Partly cloudy 10 - - - -
08/06:30pm 19.2 SW 10 13 1022.0 - 0.0 - - 10 - - - -
08/06:00pm 19.9 WSW 10 14 1022.0 - 0.0 - Partly cloudy 10 - - - -
08/05:30pm 20.2 W 9 14 1021.9 - 0.0 - Partly cloudy 10 - - - -
08/05:00pm 20.8 WSW 11 15 1021.7 - 0.0 - Partly cloudy 10 - - - -
08/04:30pm 21.0 WSW 13 17 1021.7 - 0.0 - Partly cloudy 10 - - - -
08/04:00pm 20.7 W 12 16 1021.6 - 0.0 - Partly cloudy 10 - - - -
08/03:30pm 20.9 W 11 15 1021.5 - 0.0 - - 10 - - - -
08/03:00pm 20.5 WSW 11 16 1021.5 - 0.0 - - 10 - - - -
08/02:30pm 22.1 WSW 10 15 1021.6 - 0.0 - Partly cloudy 10 - - - -
08/02:00pm 21.1 WSW 11 15 1021.7 - 0.0 - Partly cloudy 10 - - - -
08/01:30pm 20.3 SW 11 16 1021.9 - 0.0 - Partly cloudy 10 - - - -
08/01:00pm 20.1 W 13 18 1021.7 - 0.0 - - 10 - - - -
08/12:30pm 20.4 WSW 13 18 1021.6 - 0.0 - - 10 - - - -
08/12:00pm 20.4 SW 13 17 1021.5 - 0.0 - - 10 - - - -
08/11:30am 20.2 SW 14 19 1021.6 - 0.0 - - 10 - - - -
08/11:00am 19.7 WSW 11 16 1021.6 - 0.0 - Partly cloudy 10 - - - -
08/10:30am 20.5 W 9 13 1021.6 - 0.0 - Partly cloudy 10 - - - -
08/10:00am 19.9 W 9 14 1021.4 - 0.0 - Partly cloudy 10 - - - -
08/09:30am 19.5 WSW 7 11 1021.3 - 0.0 - - 10 - - - -
08/09:00am 18.2 WSW 7 10 1021.2 - 0.0 - Mostly clear 10 - - - -
08/08:30am 16.8 SW 6 9 1021.4 - 0.0 - Partly cloudy 10 - - - -
08/08:00am 16.5 SW 6 8 1020.9 - 0.0 - Partly cloudy 10 - - - -
08/07:30am 16.0 SW 5 8 1020.5 - 0.0 - Cloudy 10 - - - -
08/07:00am 15.7 SW 2 4 1020.0 - 0.0 - Cloudy 10 - - - -
08/06:30am 15.6 SW 4 6 1019.6 - 0.0 - Cloudy 10 - - - -
08/06:00am 15.5 SW 4 6 1019.2 - 0.0 - Mostly cloudy 9 - - - -
08/05:30am 15.7 SW 7 9 1018.9 - 0.0 - Partly cloudy 10 - - - -
08/05:00am 15.9 SW 2 3 1018.8 - 0.0 - Partly cloudy 10 - - - -
08/04:30am 15.6 SSW 5 6 1018.8 - 0.0 - Partly cloudy 10 - - - -
08/04:00am 15.5 SW 4 5 1018.9 - 0.0 - Partly cloudy 10 - - - -
08/03:30am 16.4 WSW 2 7 1018.8 - 0.0 - Partly cloudy 8 - - - -
08/03:00am 16.1 NNW 2 3 1018.9 - 0.0 - Mostly cloudy 10 - - - -
08/02:30am 15.8 N 3 4 1018.9 - 0.0 - Cloudy 10 - - - -
08/02:00am 15.2 NNW 3 4 1018.9 - 0.0 - Partly cloudy 10 - - - -
08/01:30am 15.4 CALM 0 0 1018.9 - 0.0 - Partly cloudy 8 - - - -
08/01:16am 16.0 SSW 1 3 1018.9 - 0.0 - Partly cloudy 7 - - - -
08/01:00am 16.1 SSW 2 3 1018.9 - 0.0 - Partly cloudy 5 - - - -
08/12:30am 16.0 WSW 4 6 1018.9 - 0.0 - Partly cloudy 3 - - - -
08/12:11am 15.3 WSW 5 6 1018.9 - 0.0 - Partly cloudy 5 - - - -
08/12:00am 15.5 WNW 4 4 1018.8 - 0.0 - Mostly clear 10 - - - -
 
Date/Time
EDT
Temp

°C
Wind Pressure Rain
since 9am
mm
Weather Cloud Vis
km
Sea
Height
m
Swell
Dir
 
Speed
knots
Gust
knots
hPa Trend Height
m
Period
s
Dir
07/11:30pm 16.0 W 2 5 1018.7 - 0.0 - - 10 - - - -
07/11:00pm 16.9 CALM 0 0 1018.8 - 0.0 - Partly cloudy 10 - - - -
07/10:50pm 16.9 SW 2 3 1018.8 - 0.0 - Partly cloudy 10 - - - -
07/10:30pm 16.9 SW 5 5 1018.7 - 0.0 - Partly cloudy 5 - - - -
07/10:25pm 16.7 SW 5 6 1018.9 - 0.0 - Partly cloudy 5 - - - -
07/10:00pm 17.1 W 4 5 1018.8 - 0.0 - Partly cloudy 10 - - - -
07/09:30pm 17.8 SW 4 4 1018.3 - 0.0 - Partly cloudy 10 - - - -
07/09:00pm 18.5 WSW 3 5 1018.1 - 0.0 - Mostly cloudy 10 - - - -
07/08:30pm 19.4 SW 5 7 1017.9 - 0.0 - Partly cloudy 10 - - - -
07/08:00pm 20.2 SW 6 7 1018.0 - 0.0 - Partly cloudy 10 - - - -
07/07:30pm 20.9 WSW 5 6 1017.6 - 0.0 - Partly cloudy 10 - - - -
07/07:00pm 21.0 WSW 6 8 1017.4 - 0.0 - Cloudy 10 - - - -
07/06:30pm 22.0 SW 7 9 1017.1 - 0.0 - Cloudy 10 - - - -
07/06:00pm 21.9 SW 8 11 1017.0 - 0.0 - Cloudy 10 - - - -
07/05:30pm 22.1 WSW 10 13 1017.0 - 0.0 - Cloudy 10 - - - -
07/05:00pm 23.0 SW 11 14 1016.9 - 0.0 - Partly cloudy 10 - - - -
07/04:30pm 24.1 WSW 11 15 1016.8 - 0.0 - - 10 - - - -
07/04:00pm 24.9 W 9 12 1016.6 - 0.0 - - 10 - - - -
07/03:30pm 25.6 W 10 13 1016.7 - 0.0 - - 10 - - - -
07/03:00pm 24.9 WSW 10 14 1016.7 - 0.0 - - 10 - - - -
07/02:30pm 25.3 WSW 10 15 1016.7 - 0.0 - - 10 - - - -
07/02:00pm 25.6 WSW 10 14 1016.7 - 0.0 - - 10 - - - -
07/01:30pm 24.8 WSW 10 14 1017.0 - 0.0 - - 10 - - - -
07/01:00pm 24.6 WSW 10 12 1017.2 - 0.0 - - 10 - - - -
07/12:30pm 25.1 WSW 10 12 1017.3 - 0.0 - - 10 - - - -
07/12:00pm 23.9 WSW 10 13 1017.2 - 0.0 - - 10 - - - -
07/11:30am 24.0 W 8 11 1017.1 - 0.0 - - 10 - - - -
07/11:00am 22.6 W 7 8 1017.4 - 0.0 - Partly cloudy 10 - - - -
07/10:30am 22.3 NW 5 10 1017.6 - 0.0 - Partly cloudy 10 - - - -
07/10:00am 22.6 NNE 4 7 1017.6 - 0.0 - - 10 - - - -
07/09:30am 21.9 ENE 4 6 1017.6 - 0.0 - Partly cloudy 10 - - - -
07/09:00am 19.7 ENE 1 3 1017.7 - 0.0 - Mostly cloudy 10 - - - -
07/08:30am 19.0 NE 3 6 1017.6 - 0.0 - Cloudy 10 - - - -
07/08:00am 18.7 NNE 4 6 1017.5 - 0.0 - Cloudy 10 - - - -
07/07:30am 17.2 N 3 5 1017.5 - 0.0 - Partly cloudy 10 - - - -
07/07:00am 16.4 NNE 1 5 1017.3 - 0.0 - Cloudy 10 - - - -
07/06:30am 16.5 NNE 4 5 1017.3 - 0.0 - Cloudy 10 - - - -
07/06:00am 16.8 NE 3 5 1017.2 - 0.0 - Mostly cloudy 10 - - - -
07/05:30am 16.8 NNE 3 5 1017.1 - 0.0 - Cloudy 10 - - - -
07/05:00am 16.9 CALM 0 3 1017.1 - 0.0 - Cloudy 10 - - - -
07/04:30am 17.2 NNE 4 6 1017.0 - 0.0 - Cloudy 10 - - - -
07/04:00am 16.7 N 4 5 1017.1 - 0.0 - Cloudy 10 - - - -
07/03:30am 16.5 NNE 4 5 1017.0 - 0.0 - Cloudy 10 - - - -
07/03:00am 16.3 NNE 6 7 1017.1 - 0.0 - Cloudy 10 - - - -
07/02:30am 16.0 NNE 7 9 1017.4 - 0.0 - Cloudy 10 - - - -
07/02:00am 15.8 NNE 5 7 1017.6 - 0.0 - Partly cloudy 10 - - - -
07/01:30am 15.7 N 4 6 1017.8 - 0.0 - - 10 - - - -
07/01:02am 16.4 NNE 5 7 1017.9 - 0.0 - Partly cloudy 10 - - - -
07/01:00am 16.5 NNE 5 7 1017.9 - 0.0 - Partly cloudy 9 - - - -

Other Formats:

Comma delimited format used in spreadsheet applications
http://www.bom.gov.au/fwo/IDT60701/IDT60701.94956.axf

JavaScript Object Notation format (JSON) in row-major order
http://www.bom.gov.au/fwo/IDT60701/IDT60701.94956.json